Time;durP1;ratioP1;P1;durP2;ratioP2;P2;SDS_P1;SDS_P2;PMS_P1;PMS_P2;Temp;Humidity;BMP_temperature;BMP_pressure;BME280_temperature;BME280_humidity;BME280_pressure;Samples;Min_cycle;Max_cycle;Signal;HPM_P1;HPM_P2
2021/06/01 00:02:34;;;;;;;3.23;2.93;;;;;;;;;;4991719;28;20408;-68
2021/06/01 00:05:00;;;;;;;3.97;2.93;;;;;;;;;;4991347;28;20437;-68
2021/06/01 00:07:26;;;;;;;3.37;2.93;;;;;;;;;;4991579;28;20465;-68
2021/06/01 00:09:52;;;;;;;3.83;3.37;;;;;;;;;;4991904;28;20521;-68
2021/06/01 00:12:19;;;;;;;3.07;2.77;;;;;;;;;;4991504;28;20410;-70
2021/06/01 00:17:48;;;;;;;6.60;3.10;;;;;;;;;;4991607;28;20428;-74
2021/06/01 00:20:14;;;;;;;3.80;3.50;;;;;;;;;;4991559;28;20417;-69
2021/06/01 00:22:40;;;;;;;3.13;2.93;;;;;;;;;;4991609;28;20522;-72
2021/06/01 00:25:07;;;;;;;3.70;3.40;;;;;;;;;;4991599;28;20410;-72
2021/06/01 00:27:33;;;;;;;3.83;3.43;;;;;;;;;;4991417;28;20924;-67
2021/06/01 00:33:03;;;;;;;3.40;3.20;;;;;;;;;;4991395;28;20477;-70
2021/06/01 00:35:29;;;;;;;3.33;3.00;;;;;;;;;;4991308;28;21107;-70
2021/06/01 00:37:55;;;;;;;3.40;3.10;;;;;;;;;;4990866;28;20600;-71
2021/06/01 00:40:21;;;;;;;4.60;4.20;;;;;;;;;;4991707;28;20420;-67
2021/06/01 00:42:47;;;;;;;3.97;3.23;;;;;;;;;;4973747;28;20434;-66
2021/06/01 00:48:16;;;;;;;4.57;4.17;;;;;;;;;;4991140;28;20981;-69
2021/06/01 00:50:42;;;;;;;3.90;3.60;;;;;;;;;;4991643;28;20839;-69
2021/06/01 00:53:08;;;;;;;3.50;3.20;;;;;;;;;;4991044;28;20742;-68
2021/06/01 00:55:35;;;;;;;4.37;3.80;;;;;;;;;;4991327;28;20433;-69
2021/06/01 00:58:01;;;;;;;4.00;3.60;;;;;;;;;;4990994;28;20525;-70
2021/06/01 01:03:31;;;;;;;3.97;3.53;;;;;;;;;;4991470;28;20420;-69
2021/06/01 01:06:03;;;;;;;5.60;3.93;;;;;;;;;;4973893;28;20456;-72
2021/06/01 01:11:14;;;;;;;4.83;4.07;;;;;;;;;;4991241;28;20422;-69
2021/06/01 01:13:55;;;;;;;4.90;4.07;;;;;;;;;;4990908;28;20918;-68
2021/06/01 01:19:31;;;;;;;3.70;3.43;;;;;;;;;;4990577;28;20484;-70
2021/06/01 01:21:57;;;;;;;4.30;3.43;;;;;;;;;;4991281;28;20428;-69
2021/06/01 01:24:26;;;;;;;3.30;3.00;;;;;;;;;;4990810;28;20469;-68
2021/06/01 01:26:57;;;;;;;3.50;3.20;;;;;;;;;;4991270;28;20417;-69
2021/06/01 01:29:42;;;;;;;5.30;3.23;;;;;;;;;;4991236;28;20426;-69
2021/06/01 01:35:11;;;;;;;4.77;3.10;;;;;;;;;;4990847;28;20464;-70
2021/06/01 01:37:38;;;;;;;3.20;2.90;;;;;;;;;;4991334;28;20421;-70
2021/06/01 01:40:05;;;;;;;3.87;3.37;;;;;;;;;;4990916;28;20424;-71
2021/06/01 01:42:41;;;;;;;3.93;3.40;;;;;;;;;;4990396;28;20448;-67
2021/06/01 01:45:09;;;;;;;3.33;3.03;;;;;;;;;;4990352;28;20448;-67
2021/06/01 01:50:13;;;;;;;4.93;3.60;;;;;;;;;;4990879;28;20453;-69
2021/06/01 01:52:40;;;;;;;4.77;3.87;;;;;;;;;;4990513;28;20413;-70
2021/06/01 01:55:08;;;;;;;3.57;3.27;;;;;;;;;;4990318;28;20785;-70
2021/06/01 01:57:35;;;;;;;3.63;3.10;;;;;;;;;;4990492;28;20480;-70
2021/06/01 02:00:03;;;;;;;4.80;3.53;;;;;;;;;;4990420;28;20935;-68
2021/06/01 02:05:32;;;;;;;3.73;3.40;;;;;;;;;;4990398;28;20928;-69
2021/06/01 02:07:59;;;;;;;6.50;3.23;;;;;;;;;;4990492;28;20473;-69
2021/06/01 02:10:25;;;;;;;3.83;3.53;;;;;;;;;;4990202;28;20563;-69
2021/06/01 02:12:51;;;;;;;3.40;2.90;;;;;;;;;;4990343;28;20449;-68
2021/06/01 02:15:17;;;;;;;5.20;4.07;;;;;;;;;;4990459;28;20785;-68
2021/06/01 02:17:43;;;;;;;5.83;3.30;;;;;;;;;;4990319;28;20520;-68
2021/06/01 02:20:10;;;;;;;3.90;3.60;;;;;;;;;;4990724;28;20421;-68
2021/06/01 02:25:22;;;;;;;3.10;2.90;;;;;;;;;;4990307;28;20877;-68
2021/06/01 02:28:11;;;;;;;3.80;3.20;;;;;;;;;;4989923;28;20468;-70
2021/06/01 02:30:41;;;;;;;3.67;3.37;;;;;;;;;;4976568;28;20974;-70
2021/06/01 02:33:07;;;;;;;3.70;3.40;;;;;;;;;;4995125;28;20774;-67
2021/06/01 02:35:34;;;;;;;6.23;3.93;;;;;;;;;;4977123;28;20428;-68
2021/06/01 02:38:01;;;;;;;4.53;4.07;;;;;;;;;;4994287;28;20435;-68
2021/06/01 02:40:28;;;;;;;3.83;3.53;;;;;;;;;;4994169;28;20429;-67
2021/06/01 02:42:54;;;;;;;3.70;3.40;;;;;;;;;;4976901;28;20782;-69
2021/06/01 02:45:21;;;;;;;5.53;3.33;;;;;;;;;;4994112;28;20448;-69
2021/06/01 02:47:47;;;;;;;3.80;3.43;;;;;;;;;;4994199;28;20464;-67
2021/06/01 02:50:14;;;;;;;3.87;3.33;;;;;;;;;;4994137;28;20594;-71
2021/06/01 02:52:41;;;;;;;3.90;3.50;;;;;;;;;;4994592;28;20797;-70
2021/06/01 02:55:08;;;;;;;3.80;3.50;;;;;;;;;;4994216;28;20775;-66
2021/06/01 02:57:34;;;;;;;4.27;3.60;;;;;;;;;;4993918;28;20417;-69
2021/06/01 03:00:00;;;;;;;3.53;3.23;;;;;;;;;;4994238;28;20429;-67
2021/06/01 03:05:30;;;;;;;3.30;3.00;;;;;;;;;;4994494;28;20412;-69
2021/06/01 03:08:05;;;;;;;3.47;3.17;;;;;;;;;;4994347;28;20564;-72
2021/06/01 03:10:31;;;;;;;3.83;3.53;;;;;;;;;;4994041;28;20413;-68
2021/06/01 03:13:00;;;;;;;5.23;4.20;;;;;;;;;;4994110;28;20422;-69
2021/06/01 03:15:26;;;;;;;5.00;3.57;;;;;;;;;;4994404;28;20410;-71
2021/06/01 03:20:56;;;;;;;4.53;4.13;;;;;;;;;;4992732;28;20476;-69
2021/06/01 03:23:22;;;;;;;6.97;3.73;;;;;;;;;;4992802;28;21080;-70
2021/06/01 03:25:49;;;;;;;6.83;4.07;;;;;;;;;;4975018;28;20443;-69
2021/06/01 03:28:15;;;;;;;4.03;3.40;;;;;;;;;;4992803;28;20538;-68
2021/06/01 03:30:41;;;;;;;5.23;3.97;;;;;;;;;;4992621;28;20503;-70
2021/06/01 03:33:07;;;;;;;6.43;3.70;;;;;;;;;;4993008;28;20548;-70
2021/06/01 03:35:34;;;;;;;4.30;3.80;;;;;;;;;;4992909;28;20420;-71
2021/06/01 03:38:00;;;;;;;4.67;4.23;;;;;;;;;;4992504;28;20511;-70
2021/06/01 03:40:26;;;;;;;13.47;4.37;;;;;;;;;;4991704;28;20823;-69
2021/06/01 03:42:53;;;;;;;6.37;3.87;;;;;;;;;;4992472;28;20427;-66
2021/06/01 03:45:20;;;;;;;5.10;3.90;;;;;;;;;;4992393;28;20432;-70
2021/06/01 03:50:50;;;;;;;4.33;3.63;;;;;;;;;;4992432;28;20420;-69
2021/06/01 03:53:16;;;;;;;7.53;3.70;;;;;;;;;;4992177;28;20425;-70
2021/06/01 03:55:42;;;;;;;5.93;3.23;;;;;;;;;;4992195;28;20465;-67
2021/06/01 03:58:08;;;;;;;3.77;3.47;;;;;;;;;;4991963;28;20421;-69
2021/06/01 04:00:35;;;;;;;3.80;3.50;;;;;;;;;;4974544;28;20796;-69
2021/06/01 04:06:05;;;;;;;4.20;3.80;;;;;;;;;;4992314;28;20460;-69
2021/06/01 04:08:31;;;;;;;3.80;3.50;;;;;;;;;;4992153;28;20479;-69
2021/06/01 04:10:57;;;;;;;3.70;3.40;;;;;;;;;;4992363;28;20421;-68
2021/06/01 04:13:23;;;;;;;7.33;3.70;;;;;;;;;;4974597;28;20436;-70
2021/06/01 04:15:49;;;;;;;4.23;3.83;;;;;;;;;;4991863;28;20504;-68
2021/06/01 04:21:18;;;;;;;6.33;4.00;;;;;;;;;;4992057;28;20428;-71
2021/06/01 04:23:44;;;;;;;5.53;4.03;;;;;;;;;;4991815;28;20425;-69
2021/06/01 04:26:10;;;;;;;4.00;3.67;;;;;;;;;;4991849;28;20528;-71
2021/06/01 04:28:36;;;;;;;6.23;4.00;;;;;;;;;;4991941;28;20477;-70
2021/06/01 04:31:02;;;;;;;4.17;3.87;;;;;;;;;;4973916;28;20435;-69
2021/06/01 04:36:32;;;;;;;4.63;3.80;;;;;;;;;;4991668;28;20430;-69
2021/06/01 04:38:58;;;;;;;4.03;3.73;;;;;;;;;;4991191;28;20509;-67
2021/06/01 04:41:24;;;;;;;7.07;3.63;;;;;;;;;;4991132;28;20429;-71
2021/06/01 04:43:50;;;;;;;8.83;3.80;;;;;;;;;;4973941;28;20422;-70
2021/06/01 04:46:16;;;;;;;3.77;3.43;;;;;;;;;;4990955;28;20484;-69
2021/06/01 04:48:42;;;;;;;4.47;3.13;;;;;;;;;;4991531;28;20472;-69
2021/06/01 04:51:16;;;;;;;5.40;4.40;;;;;;;;;;4991620;28;20466;-67
2021/06/01 04:53:44;;;;;;;5.30;4.23;;;;;;;;;;4991685;28;20739;-72
2021/06/01 04:56:10;;;;;;;4.60;3.93;;;;;;;;;;4990865;28;20418;-69
2021/06/01 04:58:36;;;;;;;4.50;3.63;;;;;;;;;;4990853;28;20663;-69
2021/06/01 05:01:02;;;;;;;4.23;3.50;;;;;;;;;;4991369;28;20470;-70
2021/06/01 05:06:33;;;;;;;4.60;3.50;;;;;;;;;;4991832;28;20432;-68
2021/06/01 05:08:59;;;;;;;3.70;3.40;;;;;;;;;;4992163;28;20469;-70
2021/06/01 05:11:25;;;;;;;3.83;3.53;;;;;;;;;;4991742;28;20424;-70
2021/06/01 05:13:51;;;;;;;4.33;4.03;;;;;;;;;;4992231;28;20812;-70
2021/06/01 05:16:17;;;;;;;3.57;3.37;;;;;;;;;;4992118;28;20877;-67
2021/06/01 05:21:46;;;;;;;4.27;3.70;;;;;;;;;;4990990;28;20804;-69
2021/06/01 05:24:12;;;;;;;7.40;3.50;;;;;;;;;;4990930;28;20413;-69
2021/06/01 05:26:39;;;;;;;6.37;4.60;;;;;;;;;;4991722;28;20426;-70
2021/06/01 05:29:05;;;;;;;3.50;3.20;;;;;;;;;;4991120;28;20473;-70
2021/06/01 05:37:19;;;;;;;4.20;3.80;;;;;;;;;;4990879;28;20479;-67
2021/06/01 05:39:45;;;;;;;5.20;3.83;;;;;;;;;;4991131;28;20470;-69
2021/06/01 05:42:11;;;;;;;4.23;3.83;;;;;;;;;;4991178;28;20440;-72
2021/06/01 05:44:37;;;;;;;4.50;3.53;;;;;;;;;;4989987;28;20457;-69
2021/06/01 05:47:03;;;;;;;4.53;3.40;;;;;;;;;;4987565;28;20780;-68
2021/06/01 05:49:29;;;;;;;5.90;3.67;;;;;;;;;;4989425;28;20543;-71
2021/06/01 05:51:56;;;;;;;5.90;4.37;;;;;;;;;;4989486;28;20422;-67
2021/06/01 05:54:22;;;;;;;5.00;4.20;;;;;;;;;;4989545;28;20543;-69
2021/06/01 05:56:50;;;;;;;7.70;4.10;;;;;;;;;;4989569;28;20488;-67
2021/06/01 05:59:16;;;;;;;4.57;3.93;;;;;;;;;;4972021;28;20877;-70
2021/06/01 06:01:42;;;;;;;4.17;3.87;;;;;;;;;;4989052;28;20477;-69
2021/06/01 06:07:11;;;;;;;4.20;3.43;;;;;;;;;;4992807;28;20463;-69
2021/06/01 06:09:37;;;;;;;4.60;3.90;;;;;;;;;;4992652;28;20428;-69
2021/06/01 06:12:03;;;;;;;7.00;4.00;;;;;;;;;;4992683;28;20713;-66
2021/06/01 06:14:29;;;;;;;4.83;3.67;;;;;;;;;;4992811;28;20469;-69
2021/06/01 06:16:56;;;;;;;6.93;4.43;;;;;;;;;;4992306;28;20507;-69
2021/06/01 06:22:26;;;;;;;3.90;3.50;;;;;;;;;;4992548;28;20431;-66
2021/06/01 06:24:52;;;;;;;5.20;4.07;;;;;;;;;;4992943;28;20828;-68
2021/06/01 06:27:18;;;;;;;6.43;4.20;;;;;;;;;;4992611;28;20541;-67
2021/06/01 06:29:44;;;;;;;5.53;4.43;;;;;;;;;;4992636;28;20414;-66
2021/06/01 06:32:10;;;;;;;4.93;3.73;;;;;;;;;;4992173;28;20406;-68
2021/06/01 06:34:36;;;;;;;6.43;4.33;;;;;;;;;;4992222;28;20777;-67
2021/06/01 06:37:04;;;;;;;10.03;4.00;;;;;;;;;;4991698;28;20428;-67
2021/06/01 06:39:31;;;;;;;8.17;5.40;;;;;;;;;;4991413;28;20473;-68
2021/06/01 06:41:57;;;;;;;5.00;3.87;;;;;;;;;;4991379;28;20479;-68
2021/06/01 06:44:23;;;;;;;3.90;3.50;;;;;;;;;;4991303;28;20513;-68
2021/06/01 06:47:06;;;;;;;4.30;3.90;;;;;;;;;;4990905;28;20627;-68
2021/06/01 06:52:35;;;;;;;6.50;4.17;;;;;;;;;;4992730;28;20464;-69
2021/06/01 06:55:02;;;;;;;5.50;4.40;;;;;;;;;;4989303;28;20437;-68
2021/06/01 06:57:28;;;;;;;6.50;3.63;;;;;;;;;;4991566;28;20747;-68
2021/06/01 06:59:53;;;;;;;10.63;4.47;;;;;;;;;;4990842;28;20417;-68
2021/06/01 07:02:20;;;;;;;7.70;3.67;;;;;;;;;;4991080;28;20413;-70
2021/06/01 07:07:53;;;;;;;6.80;3.50;;;;;;;;;;4990394;28;20500;-69
2021/06/01 07:10:22;;;;;;;5.33;3.50;;;;;;;;;;4991219;28;20497;-73
2021/06/01 07:12:48;;;;;;;5.70;3.00;;;;;;;;;;4990911;28;20746;-76
2021/06/01 07:15:31;;;;;;;4.77;3.40;;;;;;;;;;4971763;28;20433;-67
2021/06/01 07:18:00;;;;;;;7.40;3.30;;;;;;;;;;4973352;28;20537;-69
2021/06/01 07:20:30;;;;;;;7.20;3.23;;;;;;;;;;4972958;28;20453;-66
2021/06/01 07:22:57;;;;;;;4.30;3.30;;;;;;;;;;4972679;28;20442;-68
2021/06/01 07:25:23;;;;;;;4.20;3.20;;;;;;;;;;4990664;28;20422;-70
2021/06/01 07:27:49;;;;;;;4.53;2.10;;;;;;;;;;4972411;28;20472;-66
2021/06/01 07:30:15;;;;;;;6.27;2.93;;;;;;;;;;4990607;28;20750;-71
2021/06/01 07:32:43;;;;;;;3.40;2.70;;;;;;;;;;4991053;28;20904;-71
2021/06/01 07:38:13;;;;;;;3.53;2.70;;;;;;;;;;4990544;28;20445;-70
2021/06/01 07:40:39;;;;;;;3.17;2.60;;;;;;;;;;4990762;28;20493;-67
2021/06/01 07:43:06;;;;;;;3.40;2.70;;;;;;;;;;4991462;28;20428;-73
2021/06/01 07:45:32;;;;;;;3.00;2.70;;;;;;;;;;4990627;28;20421;-68
2021/06/01 07:47:58;;;;;;;2.80;2.47;;;;;;;;;;4990755;28;20471;-72
2021/06/01 07:53:28;;;;;;;3.80;3.20;;;;;;;;;;4991374;28;20765;-70
2021/06/01 07:55:54;;;;;;;3.17;2.87;;;;;;;;;;4990351;28;20420;-70
2021/06/01 07:58:20;;;;;;;5.30;2.60;;;;;;;;;;4990203;28;20422;-71
2021/06/01 08:00:47;;;;;;;4.40;2.63;;;;;;;;;;4990925;28;20472;-73
2021/06/01 08:03:17;;;;;;;3.00;2.77;;;;;;;;;;4973687;28;20433;-69
2021/06/01 08:05:43;;;;;;;3.60;3.07;;;;;;;;;;4991323;28;20465;-69
2021/06/01 08:08:10;;;;;;;2.67;2.40;;;;;;;;;;4991177;28;20469;-72
2021/06/01 08:10:36;;;;;;;3.20;2.90;;;;;;;;;;4991266;28;20979;-70
2021/06/01 08:13:02;;;;;;;3.10;2.87;;;;;;;;;;4991102;28;20512;-71
2021/06/01 08:15:28;;;;;;;2.83;2.63;;;;;;;;;;4990484;28;20409;-72
2021/06/01 08:17:59;;;;;;;6.70;3.10;;;;;;;;;;4973105;28;20441;-69
2021/06/01 08:23:29;;;;;;;3.57;2.80;;;;;;;;;;4990300;28;20543;-69
2021/06/01 08:25:55;;;;;;;4.10;2.43;;;;;;;;;;4989865;28;20450;-74
2021/06/01 08:28:21;;;;;;;3.07;2.47;;;;;;;;;;4989698;28;20473;-72
2021/06/01 08:30:47;;;;;;;2.80;2.60;;;;;;;;;;4989409;28;20418;-68
2021/06/01 08:33:13;;;;;;;2.30;2.10;;;;;;;;;;4989600;28;20920;-67
2021/06/01 08:38:43;;;;;;;3.10;2.90;;;;;;;;;;4989632;28;20756;-68
2021/06/01 08:41:13;;;;;;;4.13;2.40;;;;;;;;;;4989812;28;20458;-73
2021/06/01 08:43:39;;;;;;;3.83;2.73;;;;;;;;;;4990133;28;20446;-71
2021/06/01 08:46:06;;;;;;;2.83;1.87;;;;;;;;;;4987009;28;20968;-69
2021/06/01 08:48:34;;;;;;;2.60;1.90;;;;;;;;;;4989657;28;20473;-68
2021/06/01 08:51:00;;;;;;;2.67;2.20;;;;;;;;;;4990229;28;20827;-68
2021/06/01 08:53:26;;;;;;;4.90;2.63;;;;;;;;;;4989883;28;20448;-67
2021/06/01 08:55:53;;;;;;;3.53;2.57;;;;;;;;;;4989904;28;20518;-68
2021/06/01 08:58:22;;;;;;;2.47;2.27;;;;;;;;;;4989991;28;20410;-68
2021/06/01 09:00:48;;;;;;;2.63;2.10;;;;;;;;;;4989963;28;20410;-69
2021/06/01 09:03:20;;;;;;;2.47;2.27;;;;;;;;;;4989935;28;20464;-67
2021/06/01 09:09:02;;;;;;;1.90;1.80;;;;;;;;;;4989903;28;20467;-69
2021/06/01 09:22:35;;;;;;;4.80;2.83;;;;;;;;;;4989446;28;20420;-67
2021/06/01 09:28:12;;;;;;;2.53;2.33;;;;;;;;;;4989465;28;20468;-69
2021/06/01 09:30:51;;;;;;;5.30;2.70;;;;;;;;;;4989432;28;20421;-69
2021/06/01 09:33:18;;;;;;;2.37;2.17;;;;;;;;;;4989775;28;20660;-68
2021/06/01 09:35:44;;;;;;;3.20;2.20;;;;;;;;;;4990052;28;20505;-70
2021/06/01 09:38:10;;;;;;;2.73;2.47;;;;;;;;;;4972606;28;20492;-71
2021/06/01 09:40:36;;;;;;;2.40;2.10;;;;;;;;;;4992770;28;20424;-68
2021/06/01 09:43:02;;;;;;;3.20;2.87;;;;;;;;;;4993411;28;20428;-67
2021/06/01 09:45:28;;;;;;;2.50;2.30;;;;;;;;;;4993053;28;20421;-68
2021/06/01 09:47:56;;;;;;;4.03;2.97;;;;;;;;;;4993093;28;20839;-68
2021/06/01 09:50:35;;;;;;;1.97;1.87;;;;;;;;;;4992614;28;20448;-70
2021/06/01 09:53:05;;;;;;;2.47;2.27;;;;;;;;;;4993200;28;20409;-69
2021/06/01 09:55:37;;;;;;;4.50;1.90;;;;;;;;;;4976163;28;20766;-67
2021/06/01 09:58:05;;;;;;;3.83;2.30;;;;;;;;;;4993233;28;20413;-74
2021/06/01 10:00:32;;;;;;;2.23;2.03;;;;;;;;;;4993027;28;20559;-67
2021/06/01 10:03:03;;;;;;;2.10;2.00;;;;;;;;;;4993047;28;20405;-68
2021/06/01 10:05:29;;;;;;;2.23;2.10;;;;;;;;;;4975173;28;20962;-72
2021/06/01 10:07:57;;;;;;;2.40;2.20;;;;;;;;;;4992785;28;20465;-69
2021/06/01 10:10:27;;;;;;;3.30;2.47;;;;;;;;;;4992714;28;20810;-67
2021/06/01 10:12:55;;;;;;;2.97;2.77;;;;;;;;;;4992769;28;20452;-68
2021/06/01 10:15:22;;;;;;;3.80;3.23;;;;;;;;;;4992452;28;20428;-68
2021/06/01 10:17:49;;;;;;;2.10;2.00;;;;;;;;;;4992942;28;20718;-69
2021/06/01 10:20:15;;;;;;;2.47;2.27;;;;;;;;;;4992714;28;20413;-72
2021/06/01 10:22:41;;;;;;;2.53;2.33;;;;;;;;;;4992673;28;20425;-69
2021/06/01 10:25:08;;;;;;;4.10;2.10;;;;;;;;;;4975352;28;20433;-68
2021/06/01 10:27:34;;;;;;;4.53;2.50;;;;;;;;;;4992732;28;20475;-68
2021/06/01 10:30:00;;;;;;;2.90;2.00;;;;;;;;;;4993591;28;20422;-67
2021/06/01 10:32:27;;;;;;;1.80;1.70;;;;;;;;;;4993024;28;20513;-68
2021/06/01 10:34:53;;;;;;;3.40;1.67;;;;;;;;;;4975296;28;20916;-69
2021/06/01 10:52:06;;;;;;;3.53;1.90;;;;;;;;;;4992522;28;20445;-67
2021/06/01 10:54:43;;;;;;;3.20;2.50;;;;;;;;;;4991429;28;20413;-68
2021/06/01 10:57:09;;;;;;;3.73;2.50;;;;;;;;;;4991179;28;20420;-68
2021/06/01 11:02:20;;;;;;;3.93;2.17;;;;;;;;;;4992192;28;20414;-68
2021/06/01 11:07:54;;;;;;;2.40;2.20;;;;;;;;;;4989824;28;20567;-68
2021/06/01 11:10:39;;;;;;;3.23;2.73;;;;;;;;;;4991295;28;20430;-69
2021/06/01 11:13:06;;;;;;;2.20;2.00;;;;;;;;;;4993213;28;20420;-67
2021/06/01 11:15:33;;;;;;;2.60;2.23;;;;;;;;;;4993443;28;20468;-68
2021/06/01 11:18:24;;;;;;;2.90;2.37;;;;;;;;;;4992336;28;21088;-68
2021/06/01 11:35:30;;;;;;;3.80;2.70;;;;;;;;;;4991415;28;21012;-76
2021/06/01 11:38:10;;;;;;;2.20;2.07;;;;;;;;;;4992230;28;20484;-74
2021/06/01 11:40:54;;;;;;;5.50;3.00;;;;;;;;;;4992528;28;20434;-76
2021/06/01 11:43:20;;;;;;;2.97;2.70;;;;;;;;;;4992208;28;20825;-76
2021/06/01 11:51:11;;;;;;;2.77;2.43;;;;;;;;;;4992306;28;20414;-76
2021/06/01 11:53:49;;;;;;;3.17;2.87;;;;;;;;;;4991302;28;20890;-75
2021/06/01 11:56:19;;;;;;;2.40;2.20;;;;;;;;;;4991848;28;20508;-76
2021/06/01 12:04:36;;;;;;;6.73;2.70;;;;;;;;;;4989523;28;20468;-77
2021/06/01 12:13:10;;;;;;;2.67;2.47;;;;;;;;;;4990375;28;20469;-75
2021/06/01 12:18:28;;;;;;;5.20;2.67;;;;;;;;;;4990973;28;20939;-75
2021/06/01 12:24:07;;;;;;;2.50;2.30;;;;;;;;;;4990423;28;20416;-75
2021/06/01 12:26:46;;;;;;;4.60;2.83;;;;;;;;;;4990492;28;20484;-77
2021/06/01 12:31:58;;;;;;;3.60;2.80;;;;;;;;;;4989621;28;20421;-75
2021/06/01 12:43:25;;;;;;;3.93;2.70;;;;;;;;;;4990486;28;20472;-75
2021/06/01 13:20:27;;;;;;;3.20;2.90;;;;;;;;;;4910537;29;20884;-75
2021/06/01 13:46:04;;;;;;;7.27;2.50;;;;;;;;;;4990991;28;20425;-75
2021/06/01 13:56:47;;;;;;;4.87;3.33;;;;;;;;;;4991110;28;20638;-76
2021/06/01 14:30:23;;;;;;;2.40;2.20;;;;;;;;;;4933390;29;20572;-77
2021/06/01 15:49:31;;;;;;;4.73;2.57;;;;;;;;;;4992589;28;20554;-78
2021/06/01 16:12:01;;;;;;;3.50;2.07;;;;;;;;;;4992053;28;20456;-77
2021/06/01 16:14:58;;;;;;;3.27;2.67;;;;;;;;;;4992337;28;20765;-74
2021/06/01 16:41:54;;;;;;;3.07;2.20;;;;;;;;;;4989557;28;20457;-75
2021/06/01 17:04:10;;;;;;;3.80;1.97;;;;;;;;;;4989476;28;20520;-74
2021/06/01 17:06:52;;;;;;;5.60;2.67;;;;;;;;;;4987070;28;20430;-77
2021/06/01 17:12:05;;;;;;;3.33;2.27;;;;;;;;;;4990553;28;20573;-75
2021/06/01 17:14:31;;;;;;;2.97;2.20;;;;;;;;;;4990775;28;20424;-74
2021/06/01 17:17:03;;;;;;;2.50;2.40;;;;;;;;;;4990633;28;20418;-73
2021/06/01 17:20:09;;;;;;;2.13;1.97;;;;;;;;;;4990918;28;20417;-75
2021/06/01 17:22:54;;;;;;;2.10;2.00;;;;;;;;;;4990492;28;20425;-74
2021/06/01 17:36:10;;;;;;;4.50;2.50;;;;;;;;;;4990888;28;20445;-74
2021/06/01 17:38:36;;;;;;;5.17;2.27;;;;;;;;;;4990462;28;20437;-74
2021/06/01 17:41:05;;;;;;;5.63;3.67;;;;;;;;;;4990743;28;20445;-74
2021/06/01 17:43:32;;;;;;;4.47;3.50;;;;;;;;;;4990788;28;20512;-76
2021/06/01 17:45:59;;;;;;;5.77;3.33;;;;;;;;;;4990331;28;20457;-75
2021/06/01 17:50:55;;;;;;;4.90;3.20;;;;;;;;;;4990628;28;20405;-74
2021/06/01 17:53:21;;;;;;;3.43;2.70;;;;;;;;;;4990532;28;20452;-75
2021/06/01 17:55:50;;;;;;;3.57;3.00;;;;;;;;;;4972826;28;20487;-77
2021/06/01 17:58:17;;;;;;;2.40;1.93;;;;;;;;;;4990775;28;20500;-74
2021/06/01 18:00:43;;;;;;;3.33;2.60;;;;;;;;;;4975155;28;20436;-76
2021/06/01 18:03:11;;;;;;;4.27;2.57;;;;;;;;;;4994630;28;20414;-75
2021/06/01 18:05:41;;;;;;;4.77;2.50;;;;;;;;;;4994657;28;20430;-76
2021/06/01 19:25:11;;;;;;;3.20;2.80;;;;;;;;;;4992747;28;20460;-76
2021/06/01 19:52:23;;;;;;;2.53;2.33;;;;;;;;;;4990794;28;20505;-68
2021/06/01 19:57:53;;;;;;;4.90;2.90;;;;;;;;;;4990620;28;20971;-67
2021/06/01 20:00:20;;;;;;;2.90;2.20;;;;;;;;;;4990378;28;20444;-69
2021/06/01 20:02:46;;;;;;;4.10;2.47;;;;;;;;;;4990492;28;20426;-67
2021/06/01 20:05:13;;;;;;;2.90;2.67;;;;;;;;;;4990259;28;20417;-68
2021/06/01 20:07:39;;;;;;;3.83;2.43;;;;;;;;;;4990500;28;20453;-69
2021/06/01 20:13:08;;;;;;;5.23;3.00;;;;;;;;;;4990080;28;20440;-68
2021/06/01 20:15:35;;;;;;;4.10;3.37;;;;;;;;;;4990009;28;20904;-70
2021/06/01 20:18:04;;;;;;;9.77;3.40;;;;;;;;;;4990268;28;20414;-69
2021/06/01 20:20:31;;;;;;;2.80;2.53;;;;;;;;;;4972940;28;20465;-69
2021/06/01 20:23:01;;;;;;;3.37;3.07;;;;;;;;;;4989187;28;20924;-68
2021/06/01 20:28:40;;;;;;;5.43;3.27;;;;;;;;;;4991010;28;20492;-67
2021/06/01 20:31:17;;;;;;;3.17;2.90;;;;;;;;;;4990611;28;20425;-69
2021/06/01 20:33:44;;;;;;;3.00;2.73;;;;;;;;;;4991080;28;20428;-68
2021/06/01 20:36:10;;;;;;;5.30;3.00;;;;;;;;;;4990622;28;20483;-69
2021/06/01 20:38:36;;;;;;;5.47;3.30;;;;;;;;;;4990617;28;20421;-71
2021/06/01 20:41:03;;;;;;;3.13;2.83;;;;;;;;;;4991129;28;20421;-71
2021/06/01 20:43:29;;;;;;;3.23;2.93;;;;;;;;;;4973010;28;20884;-68
2021/06/01 20:45:55;;;;;;;4.23;3.00;;;;;;;;;;4972569;28;20525;-69
2021/06/01 20:48:22;;;;;;;3.53;3.13;;;;;;;;;;4990294;28;20476;-70
2021/06/01 20:50:49;;;;;;;3.23;2.80;;;;;;;;;;4973078;28;20513;-69
2021/06/01 20:53:16;;;;;;;4.53;3.60;;;;;;;;;;4973077;28;20444;-68
2021/06/01 20:58:46;;;;;;;4.93;3.70;;;;;;;;;;4990435;28;20412;-69
2021/06/01 21:01:16;;;;;;;7.20;3.70;;;;;;;;;;4991150;28;20509;-70
2021/06/01 21:03:43;;;;;;;5.00;3.80;;;;;;;;;;4992211;28;20417;-69
2021/06/01 21:06:10;;;;;;;3.90;3.00;;;;;;;;;;4991773;28;20426;-67
2021/06/01 21:14:26;;;;;;;11.77;3.63;;;;;;;;;;4991345;28;20401;-69
2021/06/01 21:16:52;;;;;;;5.77;3.13;;;;;;;;;;4991306;28;20417;-67
2021/06/01 21:19:18;;;;;;;5.03;3.67;;;;;;;;;;4991115;28;20414;-70
2021/06/01 21:21:44;;;;;;;3.83;3.43;;;;;;;;;;4990531;28;20414;-70
2021/06/01 21:24:11;;;;;;;4.30;3.63;;;;;;;;;;4990750;28;20409;-70
2021/06/01 21:26:37;;;;;;;5.60;3.53;;;;;;;;;;4990854;28;20417;-70
2021/06/01 21:29:03;;;;;;;4.00;3.27;;;;;;;;;;4990524;28;20543;-69
2021/06/01 21:31:33;;;;;;;4.27;3.13;;;;;;;;;;4990380;28;20405;-68
2021/06/01 21:34:04;;;;;;;3.50;3.20;;;;;;;;;;4990566;28;20472;-69
2021/06/01 21:36:31;;;;;;;3.73;3.33;;;;;;;;;;4994468;28;20449;-70
2021/06/01 21:38:57;;;;;;;3.97;3.10;;;;;;;;;;4977291;28;20414;-72
2021/06/01 21:41:23;;;;;;;3.70;3.40;;;;;;;;;;4994751;28;20988;-70
2021/06/01 21:43:50;;;;;;;5.70;3.73;;;;;;;;;;4994682;28;20815;-69
2021/06/01 21:46:16;;;;;;;5.37;3.70;;;;;;;;;;4993898;28;20623;-69
2021/06/01 21:48:43;;;;;;;4.43;4.00;;;;;;;;;;4994478;28;20780;-70
2021/06/01 21:51:11;;;;;;;5.60;3.73;;;;;;;;;;4994581;28;20746;-69
2021/06/01 21:53:37;;;;;;;4.80;3.93;;;;;;;;;;4994550;28;20424;-70
2021/06/01 21:59:13;;;;;;;4.40;4.00;;;;;;;;;;4994336;28;20412;-67
2021/06/01 22:01:39;;;;;;;6.70;4.73;;;;;;;;;;4993976;28;20936;-70
2021/06/01 22:04:07;;;;;;;9.23;4.33;;;;;;;;;;4993603;28;20480;-69
2021/06/01 22:06:33;;;;;;;6.00;4.10;;;;;;;;;;4994022;28;20425;-68
2021/06/01 22:08:59;;;;;;;5.30;4.37;;;;;;;;;;4976380;28;20484;-70
2021/06/01 22:14:29;;;;;;;7.10;4.07;;;;;;;;;;4993964;28;20688;-68
2021/06/01 22:17:02;;;;;;;8.33;4.20;;;;;;;;;;4994038;28;20418;-69
2021/06/01 22:19:28;;;;;;;6.70;4.70;;;;;;;;;;4994076;28;20717;-69
2021/06/01 22:21:55;;;;;;;5.70;3.40;;;;;;;;;;4993678;28;20474;-70
2021/06/01 22:24:22;;;;;;;6.20;4.17;;;;;;;;;;4994019;28;20417;-69
2021/06/01 22:26:48;;;;;;;7.77;4.40;;;;;;;;;;4993872;28;20935;-68
2021/06/01 22:29:15;;;;;;;5.93;3.50;;;;;;;;;;4993627;28;20520;-70
2021/06/01 22:31:41;;;;;;;6.17;4.07;;;;;;;;;;4993596;28;20516;-70
2021/06/01 22:34:08;;;;;;;5.00;4.60;;;;;;;;;;4993530;28;20489;-69
2021/06/01 22:36:36;;;;;;;6.97;4.33;;;;;;;;;;4993287;28;20524;-70
2021/06/01 22:39:07;;;;;;;5.50;3.90;;;;;;;;;;4993532;28;20521;-70
2021/06/01 22:44:36;;;;;;;4.90;4.33;;;;;;;;;;4993237;28;20762;-71
2021/06/01 22:47:04;;;;;;;5.17;4.47;;;;;;;;;;4992547;28;20535;-69
2021/06/01 22:49:31;;;;;;;6.60;4.77;;;;;;;;;;4993026;28;20479;-70
2021/06/01 22:51:59;;;;;;;5.10;4.60;;;;;;;;;;4993404;28;20491;-69
2021/06/01 22:54:24;;;;;;;7.03;4.70;;;;;;;;;;4993672;28;20417;-69
2021/06/01 22:56:53;;;;;;;4.33;4.03;;;;;;;;;;4993794;28;20472;-69
2021/06/01 22:59:25;;;;;;;4.77;4.37;;;;;;;;;;4994311;28;20505;-68
2021/06/01 23:01:52;;;;;;;5.50;4.70;;;;;;;;;;4993832;28;20442;-70
2021/06/01 23:04:20;;;;;;;5.97;4.80;;;;;;;;;;4994341;28;20430;-68
2021/06/01 23:06:47;;;;;;;4.23;3.83;;;;;;;;;;4994070;28;20418;-68
2021/06/01 23:09:14;;;;;;;3.93;3.43;;;;;;;;;;4994009;28;20533;-69
2021/06/01 23:14:43;;;;;;;4.93;3.60;;;;;;;;;;4991020;28;20405;-68
2021/06/01 23:17:09;;;;;;;4.90;3.80;;;;;;;;;;4993724;28;20409;-69
2021/06/01 23:19:35;;;;;;;4.20;3.60;;;;;;;;;;4993958;28;20414;-70
2021/06/01 23:22:02;;;;;;;7.17;3.53;;;;;;;;;;4993511;28;20439;-68
2021/06/01 23:24:28;;;;;;;8.40;3.60;;;;;;;;;;4993684;28;20883;-69
2021/06/01 23:29:58;;;;;;;4.93;3.83;;;;;;;;;;4993508;28;20557;-70
2021/06/01 23:32:24;;;;;;;5.33;4.20;;;;;;;;;;4993344;28;20422;-68
2021/06/01 23:34:51;;;;;;;6.03;3.80;;;;;;;;;;4993586;28;20421;-69
2021/06/01 23:37:17;;;;;;;5.53;3.73;;;;;;;;;;4993254;28;20425;-69
2021/06/01 23:40:03;;;;;;;4.17;3.63;;;;;;;;;;4975478;28;20546;-69
2021/06/01 23:42:29;;;;;;;4.97;4.50;;;;;;;;;;4992471;28;20432;-70
2021/06/01 23:44:55;;;;;;;7.20;4.77;;;;;;;;;;4992494;28;20417;-70
2021/06/01 23:47:23;;;;;;;6.47;3.97;;;;;;;;;;4992147;28;20529;-71
2021/06/01 23:49:51;;;;;;;4.70;3.97;;;;;;;;;;4992095;28;20495;-69
2021/06/01 23:52:17;;;;;;;5.73;4.50;;;;;;;;;;4992187;28;20513;-69
